Time;durP1;ratioP1;P1;durP2;ratioP2;P2;SDS_P1;SDS_P2;PMS_P1;PMS_P2;Temp;Humidity;BMP_temperature;BMP_pressure;BME280_temperature;BME280_humidity;BME280_pressure;Samples;Min_cycle;Max_cycle;Signal;HPM_P1;HPM_P2
2022/10/06 00:00:46;;;;;;;;;;;;;;;12.50;86.97;102091.38;4975218;28;20026;-92
2022/10/06 00:03:11;;;;;;;1.30;0.57;;;;;;;12.49;86.56;102102.69;4974630;28;19921;-92
2022/10/06 00:05:37;;;;;;;2.60;0.90;;;;;;;12.49;86.33;102110.50;4975280;28;20107;-91
2022/10/06 00:08:03;;;;;;;2.73;0.90;;;;;;;12.46;86.05;102110.50;4974543;28;20073;-92
2022/10/06 00:10:29;;;;;;;2.90;0.70;;;;;;;12.46;85.97;102118.31;4975244;28;20053;-92
2022/10/06 00:12:55;;;;;;;1.70;0.90;;;;;;;12.43;86.27;102127.88;4974751;28;20556;-91
2022/10/06 00:15:28;;;;;;;2.13;1.13;;;;;;;12.41;85.93;102133.06;4974671;28;20125;-91
2022/10/06 00:17:54;;;;;;;0.93;0.70;;;;;;;12.38;85.97;102130.50;4975033;28;20082;-91
2022/10/06 00:20:20;;;;;;;0.65;0.60;;;;;;;12.38;85.77;102140.91;4974595;28;20039;-92
2022/10/06 00:22:47;;;;;;;1.20;0.70;;;;;;;12.36;85.82;102145.25;4974587;28;20558;-91
2022/10/06 00:25:16;;;;;;;3.33;0.88;;;;;;;12.33;85.15;102155.66;4974590;28;20058;-92
2022/10/06 00:27:46;;;;;;;0.98;0.68;;;;;;;12.32;85.41;102152.19;4975006;28;20019;-92
2022/10/06 00:30:19;;;;;;;2.80;0.80;;;;;;;12.30;85.26;102159.13;4974467;28;20023;-91
2022/10/06 00:32:53;;;;;;;2.08;0.60;;;;;;;12.30;85.42;102156.53;4977428;28;20077;-92
2022/10/06 00:35:20;;;;;;;1.30;0.70;;;;;;;12.29;85.01;102164.31;4978501;28;20026;-93
2022/10/06 00:37:46;;;;;;;1.55;0.52;;;;;;;12.26;85.27;102164.34;4978561;28;20027;-92
2022/10/06 00:40:11;;;;;;;1.73;0.70;;;;;;;12.25;84.97;102166.06;4978686;28;20037;-91
2022/10/06 00:43:00;;;;;;;1.23;0.60;;;;;;;12.24;85.09;102184.28;4978554;28;20019;-91
2022/10/06 00:45:35;;;;;;;0.88;0.50;;;;;;;12.23;85.08;102174.75;4978447;28;20031;-92
2022/10/06 00:48:12;;;;;;;1.58;0.70;;;;;;;12.22;85.20;102180.81;4977983;28;20479;-92
2022/10/06 00:50:38;;;;;;;3.80;1.00;;;;;;;12.19;85.65;102186.91;4978584;28;20023;-91
2022/10/06 00:53:04;;;;;;;1.07;0.70;;;;;;;12.19;85.41;102190.34;4978058;28;20019;-91
2022/10/06 00:55:29;;;;;;;3.72;1.02;;;;;;;12.14;85.60;102189.50;4978272;28;20027;-92
2022/10/06 00:57:55;;;;;;;0.97;0.47;;;;;;;12.15;85.58;102187.75;4977764;28;20038;-91
2022/10/06 01:00:21;;;;;;;1.23;0.60;;;;;;;12.12;85.61;102199.06;4976629;28;20479;-92
2022/10/06 01:03:00;;;;;;;0.67;0.40;;;;;;;12.10;85.95;102203.38;4978003;28;20330;-93
2022/10/06 01:05:29;;;;;;;0.65;0.40;;;;;;;12.08;86.15;102194.69;4978081;28;20035;-91
2022/10/06 01:07:55;;;;;;;1.35;0.50;;;;;;;12.05;86.15;102199.91;4977931;28;20411;-91
2022/10/06 01:10:34;;;;;;;3.15;1.00;;;;;;;12.00;86.91;102201.66;4977922;28;20031;-93
2022/10/06 01:13:00;;;;;;;2.67;1.00;;;;;;;11.98;86.56;102206.84;4977743;28;20046;-92
2022/10/06 01:15:27;;;;;;;1.42;0.88;;;;;;;11.98;86.22;102222.47;4977960;28;20027;-92
2022/10/06 01:18:12;;;;;;;;;;;;;;;11.97;86.31;102232.81;4978211;28;20035;-92
2022/10/06 01:20:44;;;;;;;1.58;0.80;;;;;;;11.92;86.32;102234.56;4977774;28;19918;-91
2022/10/06 01:23:09;;;;;;;1.75;0.52;;;;;;;11.89;86.21;102233.69;4977645;28;20086;-93
2022/10/06 01:25:36;;;;;;;1.90;1.10;;;;;;;11.86;87.21;102241.47;4978873;28;20090;-92
2022/10/06 01:28:12;;;;;;;4.03;1.15;;;;;;;11.83;86.61;102241.47;4977665;28;20031;-93
2022/10/06 01:30:51;;;;;;;2.78;1.00;;;;;;;11.84;86.33;102244.94;4976954;28;20023;-92
2022/10/06 01:33:20;;;;;;;1.00;0.88;;;;;;;11.83;86.65;102249.28;4977456;28;20157;-93
2022/10/06 01:36:03;;;;;;;3.22;1.23;;;;;;;11.83;86.43;102251.03;4976975;28;20027;-92
2022/10/06 01:38:28;;;;;;;2.80;1.00;;;;;;;11.79;85.92;102252.75;4977523;28;20030;-92
2022/10/06 01:40:54;;;;;;;4.70;1.03;;;;;;;11.76;86.01;102265.75;4977148;28;20026;-91
2022/10/06 01:43:19;;;;;;;2.67;1.03;;;;;;;11.76;85.70;102265.75;4976561;28;20023;-92
2022/10/06 01:45:45;;;;;;;2.93;1.07;;;;;;;11.72;85.72;102262.28;4977493;28;20054;-92
2022/10/06 01:48:10;;;;;;;4.10;1.37;;;;;;;11.70;86.35;102263.13;4976946;28;20027;-92
2022/10/06 01:50:49;;;;;;;1.63;1.00;;;;;;;11.70;85.68;102273.53;4977514;28;20025;-91
2022/10/06 01:53:15;;;;;;;4.13;1.17;;;;;;;11.67;86.02;102276.97;4977335;28;20054;-92
2022/10/06 01:55:40;;;;;;;5.27;1.40;;;;;;;11.66;86.03;102270.03;4977250;28;20026;-91
2022/10/06 01:58:06;;;;;;;1.90;1.37;;;;;;;11.66;86.04;102275.25;4976482;28;20361;-93
2022/10/06 02:00:53;;;;;;;1.60;0.93;;;;;;;11.64;86.00;102290.00;4976914;28;20022;-93
2022/10/06 02:03:18;;;;;;;;;;;;;;;11.64;86.09;102278.72;4977352;28;20011;-92
2022/10/06 02:05:43;;;;;;;2.97;1.20;;;;;;;11.63;86.32;102280.44;4976644;28;19914;-92
2022/10/06 02:08:20;;;;;;;4.63;1.60;;;;;;;11.59;85.84;102279.59;4976801;28;20058;-92
2022/10/06 02:10:45;;;;;;;2.42;1.30;;;;;;;11.55;86.03;102288.22;4977245;28;20027;-91
2022/10/06 02:13:23;;;;;;;3.93;1.17;;;;;;;11.56;85.79;102284.75;4976334;28;20074;-92
2022/10/06 02:15:48;;;;;;;2.97;1.38;;;;;;;11.55;86.12;102295.13;4977049;28;20019;-93
2022/10/06 02:18:14;;;;;;;2.83;1.10;;;;;;;11.52;85.77;102301.19;4976432;28;20082;-92
2022/10/06 02:20:39;;;;;;;3.37;1.20;;;;;;;11.50;85.80;102304.66;4976697;28;20459;-91
2022/10/06 02:23:04;;;;;;;1.60;1.00;;;;;;;11.48;85.66;102304.66;4976252;28;20019;-92
2022/10/06 02:25:30;;;;;;;3.47;1.47;;;;;;;11.43;85.92;102304.63;4976653;28;20110;-93
2022/10/06 02:27:55;;;;;;;2.73;1.50;;;;;;;11.40;85.65;102311.53;4976174;28;20023;-92
2022/10/06 02:30:39;;;;;;;3.30;1.40;;;;;;;11.41;85.91;102324.56;4976565;28;20027;-92
2022/10/06 02:33:04;;;;;;;4.47;1.15;;;;;;;11.38;85.51;102328.84;4975291;28;20154;-91
2022/10/06 02:35:29;;;;;;;3.87;1.60;;;;;;;11.35;85.62;102327.13;4976315;28;20118;-92
2022/10/06 02:37:55;;;;;;;3.07;1.10;;;;;;;11.32;85.84;102326.25;4976053;28;20050;-91
2022/10/06 02:40:20;;;;;;;4.47;1.57;;;;;;;11.28;85.67;102334.00;4976315;28;20023;-92
2022/10/06 02:42:57;;;;;;;3.13;1.40;;;;;;;11.26;85.81;102337.47;4976269;28;20024;-91
2022/10/06 02:45:22;;;;;;;1.90;0.90;;;;;;;11.25;85.75;102351.31;4976428;28;20027;-92
2022/10/06 02:47:48;;;;;;;1.90;1.10;;;;;;;11.22;85.57;102346.09;4976057;28;20023;-92
2022/10/06 02:50:14;;;;;;;2.40;1.10;;;;;;;11.20;85.94;102358.22;4975636;28;20026;-91
2022/10/06 02:52:58;;;;;;;2.40;1.37;;;;;;;11.18;85.74;102353.00;4974643;28;20149;-91
2022/10/06 02:55:24;;;;;;;3.40;1.17;;;;;;;11.13;85.88;102362.50;4956622;28;20027;-91
2022/10/06 02:57:49;;;;;;;2.20;1.20;;;;;;;11.11;85.99;102369.44;4975769;28;20040;-92
2022/10/06 03:00:15;;;;;;;2.83;1.20;;;;;;;11.09;86.28;102355.56;4976093;28;20031;-94
2022/10/06 03:02:49;;;;;;;2.07;1.23;;;;;;;11.08;86.06;102359.88;4975903;28;20027;-91
2022/10/06 03:05:14;;;;;;;3.30;1.17;;;;;;;11.07;86.26;102373.75;4975452;28;20101;-91
2022/10/06 03:07:40;;;;;;;2.23;1.13;;;;;;;11.07;86.71;102380.66;4975445;28;20034;-92
2022/10/06 03:10:05;;;;;;;3.83;1.37;;;;;;;11.03;86.40;102382.34;4975544;28;20113;-90
2022/10/06 03:12:31;;;;;;;2.97;1.23;;;;;;;11.02;86.02;102387.56;4956300;28;20023;-92
2022/10/06 03:14:56;;;;;;;1.30;0.97;;;;;;;11.01;86.47;102388.41;4955955;28;20484;-91
2022/10/06 03:17:21;;;;;;;4.33;1.53;;;;;;;10.96;86.65;102393.56;4956212;28;20019;-92
2022/10/06 03:19:47;;;;;;;4.10;1.77;;;;;;;10.90;87.14;102391.78;4956668;28;20023;-91
2022/10/06 03:22:24;;;;;;;4.57;1.63;;;;;;;10.87;86.72;102391.75;4956018;28;20028;-91
2022/10/06 03:24:49;;;;;;;3.47;1.33;;;;;;;10.87;86.92;102399.56;4954146;29;20035;-92
2022/10/06 03:27:15;;;;;;;5.13;1.50;;;;;;;10.84;86.80;102407.31;4956564;28;20030;-92
2022/10/06 03:29:40;;;;;;;5.07;1.23;;;;;;;10.79;87.40;102403.81;4955936;28;20019;-91
2022/10/06 03:32:06;;;;;;;2.80;1.23;;;;;;;10.78;87.08;102407.25;4955849;28;20106;-92
2022/10/06 03:34:31;;;;;;;2.03;1.20;;;;;;;10.76;87.63;102420.22;4955845;28;20052;-92
2022/10/06 03:37:02;;;;;;;4.00;1.40;;;;;;;10.74;87.48;102421.06;4955081;28;20027;-91
2022/10/06 03:39:28;;;;;;;3.55;1.20;;;;;;;10.74;86.78;102427.16;4956145;28;20054;-92
2022/10/06 03:41:53;;;;;;;3.50;1.30;;;;;;;10.71;87.63;102427.13;4969647;28;20490;-91
2022/10/06 03:44:20;;;;;;;2.77;1.40;;;;;;;10.69;87.69;102430.56;4975112;28;20061;-91
2022/10/06 03:46:46;;;;;;;5.47;1.70;;;;;;;10.62;88.15;102438.25;4975475;28;20033;-91
2022/10/06 03:49:11;;;;;;;2.67;1.10;;;;;;;10.61;87.56;102435.66;4974661;28;20387;-91
2022/10/06 03:51:39;;;;;;;2.87;1.30;;;;;;;10.60;87.61;102441.72;4974858;28;20031;-91
2022/10/06 03:54:09;;;;;;;3.33;1.50;;;;;;;10.55;89.22;102448.56;4975171;28;20023;-90
2022/10/06 03:56:36;;;;;;;3.67;1.40;;;;;;;10.53;87.74;102453.75;4975297;28;20030;-91
2022/10/06 03:59:05;;;;;;;3.45;1.15;;;;;;;10.52;87.67;102451.16;4975134;28;20106;-91
2022/10/06 04:01:43;;;;;;;2.78;1.42;;;;;;;10.47;87.58;102451.97;4975109;28;20031;-90
2022/10/06 04:04:10;;;;;;;2.90;1.17;;;;;;;10.44;87.83;102453.66;4975228;28;20336;-91
2022/10/06 04:06:40;;;;;;;2.97;1.27;;;;;;;10.43;87.65;102462.31;4976525;28;20082;-91
2022/10/06 04:09:18;;;;;;;1.40;1.05;;;;;;;10.40;87.42;102467.44;4979482;28;20035;-91
2022/10/06 04:11:44;;;;;;;1.10;0.90;;;;;;;10.39;87.59;102471.78;4979100;28;20019;-91
2022/10/06 04:14:12;;;;;;;2.00;1.20;;;;;;;10.35;87.95;102478.63;4979024;28;20498;-91
2022/10/06 04:16:40;;;;;;;2.67;0.90;;;;;;;10.34;88.37;102487.25;4978982;28;20419;-92
2022/10/06 04:19:18;;;;;;;2.05;0.90;;;;;;;10.31;87.58;102486.34;4978521;28;20114;-91
2022/10/06 04:21:45;;;;;;;0.85;0.80;;;;;;;10.31;87.68;102486.34;4978900;28;20018;-91
2022/10/06 04:24:11;;;;;;;;;;;;;;;10.31;87.38;102488.94;4979111;28;20109;-90
2022/10/06 04:27:26;;;;;;;1.58;0.85;;;;;;;10.27;87.99;102492.34;4978455;28;20037;-92
2022/10/06 04:29:57;;;;;;;2.35;0.82;;;;;;;10.25;87.60;102500.09;4978525;28;20086;-91
2022/10/06 04:32:23;;;;;;;1.77;0.93;;;;;;;10.23;87.57;102495.75;4978726;28;20090;-89
2022/10/06 04:34:48;;;;;;;3.10;0.83;;;;;;;10.21;87.26;102500.94;4978803;28;20019;-91
2022/10/06 04:37:35;;;;;;;1.17;0.50;;;;;;;10.17;88.03;102504.34;4978159;28;20407;-91
2022/10/06 04:40:00;;;;;;;3.17;1.30;;;;;;;10.16;87.89;102507.78;4978048;28;20156;-91
2022/10/06 04:42:27;;;;;;;3.13;1.20;;;;;;;10.08;88.16;102512.00;4978634;28;20035;-91
2022/10/06 04:44:53;;;;;;;2.40;1.25;;;;;;;10.07;88.06;102521.50;4978007;28;20052;-90
2022/10/06 04:47:27;;;;;;;2.17;1.00;;;;;;;10.03;88.11;102517.97;4975222;28;20122;-91
2022/10/06 04:49:52;;;;;;;1.52;1.17;;;;;;;10.01;87.92;102521.41;4978401;28;20054;-91
2022/10/06 04:52:17;;;;;;;2.10;1.17;;;;;;;10.00;88.18;102517.97;4978177;28;20030;-90
2022/10/06 04:54:43;;;;;;;3.43;1.50;;;;;;;9.98;87.77;102519.66;4978381;28;20019;-92
2022/10/06 04:57:11;;;;;;;5.17;1.30;;;;;;;9.96;88.09;102534.31;4978020;28;20467;-92
2022/10/06 05:02:21;;;;;;;3.58;1.60;;;;;;;9.91;87.83;102535.97;4977808;28;20085;-90
2022/10/06 05:04:47;;;;;;;5.63;1.50;;;;;;;9.88;87.98;102544.56;4977741;28;20022;-88
2022/10/06 05:07:12;;;;;;;2.87;1.20;;;;;;;9.88;88.19;102546.31;4977329;28;20346;-89
2022/10/06 05:09:38;;;;;;;3.20;1.23;;;;;;;9.86;88.19;102555.78;4977380;28;20026;-91
2022/10/06 05:12:03;;;;;;;3.47;1.40;;;;;;;9.82;88.54;102561.75;4977706;28;20026;-90
2022/10/06 05:14:28;;;;;;;1.60;1.10;;;;;;;9.80;88.62;102564.34;4977955;28;20027;-90
2022/10/06 05:16:54;;;;;;;1.50;1.07;;;;;;;9.78;88.46;102571.22;4977388;28;20101;-89
2022/10/06 05:19:19;;;;;;;4.27;1.50;;;;;;;9.74;88.71;102572.91;4976593;28;20063;-90
2022/10/06 05:21:44;;;;;;;3.55;1.40;;;;;;;9.73;88.74;102573.75;4977497;28;20022;-89
2022/10/06 05:24:10;;;;;;;3.57;1.40;;;;;;;9.69;89.17;102579.72;4977441;28;20379;-90
2022/10/06 05:26:35;;;;;;;2.50;1.30;;;;;;;9.67;88.53;102576.25;4977740;28;20026;-89
2022/10/06 05:29:01;;;;;;;1.50;1.17;;;;;;;9.64;88.39;102583.97;4977487;28;20124;-89
2022/10/06 05:31:32;;;;;;;5.35;1.63;;;;;;;9.59;88.88;102580.41;4977284;28;20019;-89
2022/10/06 05:33:58;;;;;;;2.50;1.23;;;;;;;9.58;88.72;102583.84;4976704;28;20039;-89
2022/10/06 05:36:28;;;;;;;4.55;1.40;;;;;;;9.56;88.65;102594.19;4977731;28;20081;-90
2022/10/06 05:38:55;;;;;;;4.20;1.50;;;;;;;9.54;88.93;102601.06;4977205;28;20027;-89
2022/10/06 05:41:27;;;;;;;3.78;1.58;;;;;;;9.50;88.95;102601.88;4977410;28;20037;-90
2022/10/06 05:43:52;;;;;;;3.72;1.23;;;;;;;9.48;89.33;102610.47;4977210;28;20107;-89
2022/10/06 05:46:23;;;;;;;1.77;0.80;;;;;;;9.48;88.51;102620.81;4977200;28;20062;-90
2022/10/06 05:48:50;;;;;;;4.32;1.10;;;;;;;9.46;89.12;102627.72;4977769;28;20031;-93
2022/10/06 05:51:18;;;;;;;2.38;0.98;;;;;;;9.45;88.72;102625.97;4977311;28;20033;-93
2022/10/06 05:53:43;;;;;;;1.90;1.30;;;;;;;9.42;89.08;102622.47;4977438;28;20023;-91
2022/10/06 05:56:17;;;;;;;3.50;1.53;;;;;;;9.41;88.90;102619.84;4978239;28;20519;-91
2022/10/06 05:58:44;;;;;;;3.40;1.17;;;;;;;9.39;88.66;102629.31;4976978;28;20026;-90
2022/10/06 06:01:12;;;;;;;3.05;1.38;;;;;;;9.38;88.98;102633.63;4976741;28;20046;-91
2022/10/06 06:03:40;;;;;;;5.03;1.30;;;;;;;9.37;88.81;102633.59;4976107;28;20043;-94
2022/10/06 06:06:23;;;;;;;2.38;1.20;;;;;;;9.39;88.86;102637.09;4976997;28;20387;-91
2022/10/06 06:09:02;;;;;;;2.35;1.30;;;;;;;9.39;88.64;102653.50;4977312;28;20384;-86
2022/10/06 06:11:30;;;;;;;1.85;1.15;;;;;;;9.38;89.26;102651.75;4977146;28;20033;-89
2022/10/06 06:14:00;;;;;;;4.22;1.40;;;;;;;9.37;88.76;102654.34;4976348;28;20111;-88
2022/10/06 06:16:29;;;;;;;5.43;1.70;;;;;;;9.32;89.72;102656.84;4976437;28;20035;-90
2022/10/06 06:18:55;;;;;;;3.30;1.27;;;;;;;9.33;89.14;102661.19;4976465;28;20027;-90
2022/10/06 06:21:20;;;;;;;1.73;0.93;;;;;;;9.31;88.62;102660.28;4976326;28;20023;-90
2022/10/06 06:23:47;;;;;;;4.03;1.47;;;;;;;9.30;89.16;102658.53;4976379;28;20031;-89
2022/10/06 06:26:15;;;;;;;2.88;1.38;;;;;;;9.32;89.31;102658.53;4975479;28;20102;-90
2022/10/06 06:28:41;;;;;;;2.47;1.27;;;;;;;9.31;89.08;102659.38;4976224;28;20042;-92
2022/10/06 06:31:09;;;;;;;4.43;1.30;;;;;;;9.34;88.77;102662.94;4975825;28;20023;-89
2022/10/06 06:33:39;;;;;;;2.92;1.35;;;;;;;9.44;89.40;102669.13;4975811;28;20428;-82
2022/10/06 06:36:23;;;;;;;2.83;1.13;;;;;;;9.50;88.97;102677.06;4975344;28;20030;-89
2022/10/06 06:38:50;;;;;;;2.42;1.27;;;;;;;9.58;89.06;102671.97;4975955;28;20395;-88
2022/10/06 06:41:27;;;;;;;4.20;1.40;;;;;;;9.66;88.80;102683.38;4975712;28;20472;-88
2022/10/06 06:43:52;;;;;;;5.13;1.50;;;;;;;9.68;88.86;102686.84;4976017;28;20058;-88
2022/10/06 06:46:19;;;;;;;3.33;1.30;;;;;;;9.77;88.39;102683.56;4975584;28;20158;-89
2022/10/06 06:48:46;;;;;;;1.60;0.88;;;;;;;10.02;88.78;102684.84;4976050;28;20027;-89
2022/10/06 06:51:12;;;;;;;1.10;0.98;;;;;;;10.44;88.80;102698.50;4976744;28;20042;-89
2022/10/06 06:53:38;;;;;;;4.15;1.60;;;;;;;10.57;86.93;102702.19;4976252;28;20035;-88
2022/10/06 06:56:05;;;;;;;4.15;1.40;;;;;;;10.56;87.27;102700.44;4975112;28;20019;-88
2022/10/06 06:58:31;;;;;;;2.92;1.20;;;;;;;10.52;87.03;102705.56;4975229;28;20151;-88
2022/10/06 07:01:10;;;;;;;1.43;0.80;;;;;;;10.49;86.90;102706.38;4975253;28;20432;-88
2022/10/06 07:03:35;;;;;;;1.75;0.82;;;;;;;10.47;86.97;102713.28;4975488;28;20041;-88
2022/10/06 07:06:08;;;;;;;3.17;1.20;;;;;;;10.45;86.94;102714.97;4975361;28;20106;-88
2022/10/06 07:08:37;;;;;;;4.45;1.45;;;;;;;10.42;86.24;102718.38;4975276;28;20033;-89
2022/10/06 07:11:38;;;;;;;1.95;1.17;;;;;;;10.42;86.77;102720.13;4975281;28;20031;-88
2022/10/06 07:14:11;;;;;;;2.13;1.30;;;;;;;10.43;86.80;102729.66;4953568;29;20519;-88
2022/10/06 07:25:11;;;;;;;5.97;1.60;;;;;;;10.52;86.87;102747.97;4974901;28;20046;-88
2022/10/06 07:27:40;;;;;;;5.82;1.90;;;;;;;10.54;86.84;102745.38;4974169;28;20031;-88
2022/10/06 07:30:17;;;;;;;5.15;1.80;;;;;;;10.56;86.42;102749.75;4974433;28;20027;-88
2022/10/06 07:32:44;;;;;;;6.93;1.70;;;;;;;10.60;86.28;102761.06;4974794;28;20073;-87
2022/10/06 07:35:10;;;;;;;3.53;1.55;;;;;;;10.66;86.76;102772.41;4974412;28;20022;-88
2022/10/06 07:37:35;;;;;;;7.00;2.13;;;;;;;10.72;86.68;102770.75;4974707;28;20035;-88
2022/10/06 07:40:01;;;;;;;6.67;1.97;;;;;;;10.76;87.10;102775.16;4974481;28;20031;-87
2022/10/06 07:42:26;;;;;;;2.93;1.73;;;;;;;10.80;86.50;102769.16;4973747;28;20026;-88
2022/10/06 07:45:52;;;;;;;4.50;1.67;;;;;;;10.86;86.97;102782.22;4974551;28;20027;-88
2022/10/06 07:47:46;;;;;;;4.53;1.40;;;;;;;10.94;86.43;102784.94;4965904;28;20107;-88
2022/10/06 07:50:11;;;;;;;3.10;1.33;;;;;;;11.00;86.74;102792.81;4973471;28;20031;-86
2022/10/06 07:52:38;;;;;;;5.77;1.70;;;;;;;11.05;86.41;102800.66;4974750;28;20507;-88
2022/10/06 07:55:03;;;;;;;5.50;1.70;;;;;;;11.12;86.57;102798.19;4974724;28;20027;-88
2022/10/06 07:57:33;;;;;;;2.03;1.10;;;;;;;11.21;86.54;102800.03;4974037;28;20103;-88
2022/10/06 07:59:58;;;;;;;4.75;1.50;;;;;;;11.27;86.15;102799.25;4973873;28;20407;-87
2022/10/06 08:02:25;;;;;;;4.93;1.90;;;;;;;11.32;85.45;102804.50;4973841;28;20026;-88
2022/10/06 08:04:51;;;;;;;4.65;1.63;;;;;;;11.38;85.85;102800.25;4973571;28;20055;-88
2022/10/06 08:07:16;;;;;;;4.30;1.50;;;;;;;11.46;85.79;102815.97;4974682;28;20077;-87
2022/10/06 08:09:41;;;;;;;1.70;1.10;;;;;;;11.52;85.77;102810.81;4973329;28;20522;-88
2022/10/06 08:12:31;;;;;;;5.17;1.33;;;;;;;11.61;85.90;102809.19;4974229;28;20027;-88
2022/10/06 08:14:52;;;;;;;6.40;1.45;;;;;;;11.70;85.02;102814.53;4973899;28;20093;-86
2022/10/06 08:17:17;;;;;;;3.67;1.60;;;;;;;11.77;85.57;102813.72;4973810;28;20034;-88
2022/10/06 08:19:42;;;;;;;6.93;1.87;;;;;;;11.86;84.55;102823.38;4974522;28;20368;-88
2022/10/06 08:22:09;;;;;;;2.90;1.57;;;;;;;11.94;85.21;102829.53;4973465;28;20074;-88
2022/10/06 08:24:34;;;;;;;4.50;1.77;;;;;;;12.07;84.42;102832.28;4974121;28;20031;-89
2022/10/06 08:26:59;;;;;;;6.83;1.67;;;;;;;12.15;84.11;102839.34;4973868;28;20026;-87
2022/10/06 08:29:25;;;;;;;9.20;2.03;;;;;;;12.24;84.09;102832.47;4973847;28;20039;-88
2022/10/06 08:31:50;;;;;;;6.07;1.93;;;;;;;12.34;84.31;102839.50;4973409;28;20416;-88
2022/10/06 08:34:15;;;;;;;3.53;1.70;;;;;;;12.43;84.37;102838.72;4973448;28;20043;-88
2022/10/06 08:36:42;;;;;;;2.13;1.43;;;;;;;12.52;84.00;102847.47;4974286;28;20125;-88
2022/10/06 08:39:07;;;;;;;7.32;1.90;;;;;;;12.64;82.14;102856.25;4973830;28;20364;-88
2022/10/06 08:41:47;;;;;;;6.43;1.80;;;;;;;12.74;83.15;102858.06;4974155;28;20038;-87
2022/10/06 08:44:15;;;;;;;3.08;1.40;;;;;;;12.85;83.34;102859.88;4973806;28;20027;-89
2022/10/06 08:46:51;;;;;;;7.25;1.88;;;;;;;12.97;81.57;102855.66;4973842;28;20027;-90
2022/10/06 08:49:20;;;;;;;4.50;1.60;;;;;;;13.09;82.92;102865.28;4974298;28;20026;-87
2022/10/06 08:52:06;;;;;;;4.07;1.65;;;;;;;13.20;82.06;102862.75;4973701;28;20354;-88
2022/10/06 08:54:46;;;;;;;3.70;1.50;;;;;;;13.32;82.39;102867.16;4977430;28;20129;-88
2022/10/06 08:57:24;;;;;;;6.97;1.85;;;;;;;13.39;79.45;102868.06;4977955;28;20035;-88
2022/10/06 08:59:52;;;;;;;5.28;2.08;;;;;;;13.49;79.91;102876.84;4977601;28;20039;-89
2022/10/06 09:02:40;;;;;;;6.20;1.70;;;;;;;13.61;80.47;102891.66;4977816;28;20038;-88
2022/10/06 09:05:07;;;;;;;3.00;1.40;;;;;;;13.69;80.28;102887.34;4973008;28;20423;-88
2022/10/06 09:08:11;;;;;;;4.05;1.42;;;;;;;13.77;74.71;102890.88;4974781;28;20031;-87
2022/10/06 09:10:48;;;;;;;6.82;1.90;;;;;;;13.81;78.95;102902.19;4908837;29;20119;-88
2022/10/06 09:13:23;;;;;;;6.20;2.00;;;;;;;13.89;77.83;102896.16;4917424;29;20025;-89
2022/10/06 09:16:03;;;;;;;8.77;2.05;;;;;;;14.02;76.99;102899.66;4948338;28;20043;-87
2022/10/06 09:18:37;;;;;;;7.30;1.90;;;;;;;14.09;75.71;102897.06;4977067;28;20041;-88
2022/10/06 09:21:09;;;;;;;6.30;1.95;;;;;;;14.15;75.94;102905.78;4976298;28;20027;-87
2022/10/06 09:23:48;;;;;;;5.70;1.60;;;;;;;14.24;76.85;102906.69;4977309;28;20058;-88
2022/10/06 09:26:28;;;;;;;5.70;1.70;;;;;;;14.35;77.53;102899.75;4976859;28;20110;-87
2022/10/06 09:28:55;;;;;;;5.75;1.80;;;;;;;14.42;75.63;102906.72;4976350;28;20027;-87
2022/10/06 09:31:30;;;;;;;8.60;2.40;;;;;;;14.48;73.57;102909.34;4977006;28;20395;-88
2022/10/06 09:34:11;;;;;;;9.00;2.42;;;;;;;14.55;75.00;102907.59;4976410;28;20113;-87
2022/10/06 09:37:06;;;;;;;5.38;1.55;;;;;;;14.65;75.95;102904.13;4976763;28;20377;-87
2022/10/06 09:39:36;;;;;;;4.00;1.48;;;;;;;14.79;76.59;102912.03;4976856;28;20023;-88
2022/10/06 09:42:24;;;;;;;1.40;1.10;;;;;;;14.93;76.16;102914.63;4975854;28;20034;-87
2022/10/06 09:44:49;;;;;;;5.75;1.70;;;;;;;15.11;74.27;102918.09;4976255;28;20404;-92
2022/10/06 09:47:45;;;;;;;4.93;1.37;;;;;;;15.18;74.12;102912.00;4977675;28;20026;-90
2022/10/06 09:50:16;;;;;;;9.80;2.38;;;;;;;15.19;72.92;102920.69;4977172;28;20391;-92
2022/10/06 09:53:00;;;;;;;6.35;2.00;;;;;;;15.26;71.78;102922.41;4977107;28;20479;-91
2022/10/06 09:55:41;;;;;;;10.57;2.03;;;;;;;15.31;70.62;102932.91;4977372;28;20042;-90
2022/10/06 09:58:16;;;;;;;7.72;1.92;;;;;;;15.35;70.56;102927.66;4976907;28;20031;-89
2022/10/06 10:00:47;;;;;;;6.95;1.90;;;;;;;15.41;70.28;102922.41;4976997;28;20483;-90
2022/10/06 10:03:13;;;;;;;5.38;1.85;;;;;;;15.53;72.58;102921.53;4976982;28;20034;-91
2022/10/06 10:05:45;;;;;;;2.60;1.40;;;;;;;15.74;72.08;102925.78;4976336;28;20376;-90
2022/10/06 10:08:13;;;;;;;5.35;1.90;;;;;;;15.89;70.71;102924.03;4976163;28;20035;-91
2022/10/06 10:10:39;;;;;;;6.55;1.70;;;;;;;15.86;70.33;102921.41;4976069;28;20034;-88
2022/10/06 10:13:24;;;;;;;3.25;1.58;;;;;;;15.80;70.21;102919.66;4975335;28;20062;-87
2022/10/06 10:15:57;;;;;;;5.85;1.65;;;;;;;15.69;69.44;102926.69;4975115;28;20217;-89
2022/10/06 10:18:25;;;;;;;3.60;1.17;;;;;;;15.55;70.77;102927.59;4975044;28;20034;-87
2022/10/06 10:20:57;;;;;;;6.13;1.52;;;;;;;15.52;68.89;102934.59;4975721;28;20089;-90
2022/10/06 10:23:39;;;;;;;6.90;1.70;;;;;;;15.44;68.38;102939.84;4976085;28;20041;-89
2022/10/06 10:26:19;;;;;;;3.95;1.30;;;;;;;15.42;68.99;102939.00;4976876;28;20057;-87
2022/10/06 10:29:32;;;;;;;4.20;1.60;;;;;;;15.23;68.90;102927.69;4976776;28;20034;-90
2022/10/06 10:32:14;;;;;;;5.35;1.45;;;;;;;15.30;68.93;102939.88;4975859;28;20042;-88
2022/10/06 10:35:17;;;;;;;4.60;1.30;;;;;;;15.27;67.88;102945.97;4976237;28;20515;-91
2022/10/06 10:37:45;;;;;;;3.53;1.15;;;;;;;15.35;69.23;102939.84;4976435;28;20122;-88
2022/10/06 10:40:13;;;;;;;2.92;1.42;;;;;;;15.44;66.52;102943.34;4976147;28;20082;-91
2022/10/06 10:42:57;;;;;;;3.85;1.42;;;;;;;15.43;66.17;102932.84;4959445;28;20106;-88
2022/10/06 10:45:33;;;;;;;5.28;1.63;;;;;;;15.50;67.71;102933.72;4957073;29;20035;-90
2022/10/06 10:48:04;;;;;;;2.15;1.30;;;;;;;15.53;66.46;102929.38;4956460;29;20023;-90
2022/10/06 10:50:42;;;;;;;3.63;1.40;;;;;;;15.63;65.29;102934.56;4957392;29;20078;-91
2022/10/06 10:53:13;;;;;;;1.98;1.10;;;;;;;15.77;67.12;102931.91;4956539;29;20046;-94
2022/10/06 10:55:43;;;;;;;4.70;1.45;;;;;;;15.90;66.22;102941.47;4957059;29;20567;-91
2022/10/06 10:58:30;;;;;;;3.63;1.35;;;;;;;15.93;65.65;102935.34;4956585;29;20471;-91
2022/10/06 11:01:09;;;;;;;3.70;1.50;;;;;;;15.99;63.88;102932.69;4956718;28;20027;-92
2022/10/06 11:03:34;;;;;;;5.90;1.80;;;;;;;16.04;65.14;102938.78;4956598;29;20065;-90
2022/10/06 11:06:38;;;;;;;5.27;1.73;;;;;;;16.10;65.73;102938.75;4961294;28;20023;-90
2022/10/06 11:09:06;;;;;;;6.43;1.90;;;;;;;16.14;64.27;102945.72;4935001;29;20040;-91
2022/10/06 11:11:53;;;;;;;4.78;1.75;;;;;;;16.16;61.31;102933.50;4935416;29;20032;-91
2022/10/06 11:14:58;;;;;;;4.30;1.67;;;;;;;16.25;63.93;102937.81;4960167;28;20042;-90
2022/10/06 11:17:39;;;;;;;3.08;1.75;;;;;;;16.35;65.78;102939.50;4942796;28;20054;-91
2022/10/06 11:20:49;;;;;;;3.88;1.60;;;;;;;16.46;62.87;102936.81;4975313;28;20094;-90
2022/10/06 11:23:31;;;;;;;3.92;1.80;;;;;;;16.56;65.90;102942.88;4975642;28;20035;-89
2022/10/06 11:26:23;;;;;;;4.50;2.00;;;;;;;16.64;63.13;102942.81;4974802;28;20035;-88
2022/10/06 11:28:52;;;;;;;7.45;2.30;;;;;;;16.64;63.82;102948.91;4973847;28;20500;-87
2022/10/06 11:31:25;;;;;;;5.18;2.15;;;;;;;16.70;62.67;102945.38;4974482;28;20042;-93
2022/10/06 11:33:57;;;;;;;3.92;2.00;;;;;;;16.73;62.46;102942.75;4974017;28;20039;-87
2022/10/06 11:36:30;;;;;;;5.28;2.03;;;;;;;16.73;60.05;102945.38;4974619;28;20022;-88
2022/10/06 11:39:06;;;;;;;4.95;1.92;;;;;;;16.65;58.63;102929.69;4973909;28;20054;-86
2022/10/06 11:41:40;;;;;;;3.15;2.00;;;;;;;16.66;63.39;102936.66;4974233;28;20027;-87
2022/10/06 11:44:18;;;;;;;6.03;2.10;;;;;;;16.70;61.81;102939.28;4974139;28;20030;-87
2022/10/06 11:47:01;;;;;;;7.63;2.22;;;;;;;16.73;61.08;102932.25;4974255;28;20027;-87
2022/10/06 11:49:29;;;;;;;5.80;2.33;;;;;;;16.76;61.23;102932.25;4973671;28;20395;-85
2022/10/06 11:52:07;;;;;;;3.15;2.00;;;;;;;16.85;62.76;102939.13;4974142;28;20046;-87
2022/10/06 11:54:48;;;;;;;7.40;2.20;;;;;;;16.88;61.38;102928.63;4974837;28;20034;-85
2022/10/06 11:57:23;;;;;;;3.30;1.77;;;;;;;16.86;61.68;102924.28;4973616;28;20034;-86